»·PEaware :: N172TT KSNA-KBUR

N172TT :: KSNA-KBUR

FLIGHT INFORMATION

Flight Status: Arrived
Operator: Privately registered:
United States
More flights under this callsign
Pilot: Thomas T. (19955)
Aircraft: CESSNA 172 SKYHAWK
(C172)
More flights by this aircraft type
Origin: KSNA John Wayne-Orange Co
United States
Destination: KBUR Bob Hope-Burbank
United States
More flights between these airports :: More routes between these airports
Route: KSNA SLI V23 POPPER SMO125R SMO SMO311R SILEX KBUR
File this flight plan on PilotEdge
Remarks: TRAING FLIGHT I3 RATING
Altitude:
(Current/Filed)
4,000ft
Speed:
(Current/Filed)
118kts
Departed: 01-Oct-18 12:04 PM
Arrived: 01-Oct-18 01:25 PM
Distance/Time
Traveled:
40nm/1:21
Distance/Time
To Go:
Arrived

Flight Plot

Page will automatically refresh every two minutes.

Flight plan parsing failed; only flown route is shown


Map Options




Map Legend


Flown Route
Filed Route
Departure Airport
Arrival Airport
Navaid (VOR, NDB)
Fix

Horizontal Profiles

Position Reports

Time Latitude Longitude Heading Altitude Ground
Speed
01-Oct-18 11:50 33.676080 -117.870909 219 60ft 0kts
01-Oct-18 11:51 33.676080 -117.870909 219 60ft 0kts
01-Oct-18 11:52 33.676080 -117.870909 219 60ft 0kts
01-Oct-18 11:53 33.676080 -117.870909 219 60ft 0kts
01-Oct-18 11:54 33.676080 -117.870909 219 60ft 0kts
01-Oct-18 11:55 33.676080 -117.870909 219 60ft 0kts
01-Oct-18 11:56 33.676797 -117.869620 26 60ft 15kts
01-Oct-18 11:57 33.680680 -117.867358 26 60ft 14kts
01-Oct-18 11:58 33.681213 -117.866904 80 60ft 0kts
01-Oct-18 11:59 33.681213 -117.866904 80 60ft 0kts
01-Oct-18 12:00 33.681213 -117.866904 80 60ft 0kts
01-Oct-18 12:01 33.681213 -117.866904 80 60ft 0kts
01-Oct-18 12:02 33.681213 -117.866904 80 60ft 0kts
01-Oct-18 12:03 33.681213 -117.866904 80 60ft 0kts
01-Oct-18 12:04 33.681213 -117.866904 80 60ft 0kts
01-Oct-18 12:05 33.680461 -117.865799 209 60ft 3kts
01-Oct-18 12:06 33.664564 -117.877083 207 554ft 84kts
01-Oct-18 12:07 33.646327 -117.900056 231 1202ft 97kts
01-Oct-18 12:08 33.629744 -117.925120 231 1899ft 95kts
01-Oct-18 12:09 33.610878 -117.953647 232 1962ft 113kts
01-Oct-18 12:10 33.592950 -117.980702 231 2291ft 89kts
01-Oct-18 12:11 33.600100 -118.000137 314 2960ft 66kts
01-Oct-18 12:12 33.613282 -118.017580 337 3476ft 98kts
01-Oct-18 12:13 33.643524 -118.010875 14 3862ft 116kts
01-Oct-18 12:14 33.675340 -118.003183 333 3877ft 119kts
01-Oct-18 12:15 33.702817 -118.025338 323 3879ft 120kts
01-Oct-18 12:16 33.716760 -118.058484 292 3874ft 119kts
01-Oct-18 12:17 33.742353 -118.082820 322 4026ft 113kts
01-Oct-18 12:18 33.765214 -118.107141 307 4326ft 108kts
01-Oct-18 12:19 33.784232 -118.133734 345 4606ft 111kts
01-Oct-18 12:20 33.792229 -118.105606 124 4292ft 139kts
01-Oct-18 12:21 33.772688 -118.069579 124 4106ft 128kts
01-Oct-18 12:22 33.753234 -118.033890 124 3906ft 127kts
01-Oct-18 12:23 33.734111 -117.999121 125 3874ft 122kts
01-Oct-18 12:24 33.714414 -117.967203 127 3809ft 110kts
01-Oct-18 12:25 33.705734 -117.933004 104 3398ft 119kts
01-Oct-18 12:26 33.712286 -117.892912 71 2529ft 124kts
01-Oct-18 12:27 33.712623 -117.856985 114 1680ft 102kts
01-Oct-18 12:28 33.691788 -117.858649 211 505ft 77kts
01-Oct-18 12:29 33.678333 -117.867204 201 60ft 2kts
01-Oct-18 12:30 33.678016 -117.868178 301 60ft 0kts
01-Oct-18 12:31 33.680133 -117.867698 25 60ft 18kts
01-Oct-18 12:32 33.681810 -117.866589 57 60ft 0kts
01-Oct-18 12:33 33.681810 -117.866589 57 60ft 0kts
01-Oct-18 12:34 33.681810 -117.866589 57 60ft 0kts
01-Oct-18 12:35 33.681810 -117.866589 57 60ft 0kts
01-Oct-18 12:36 33.681810 -117.866589 57 60ft 0kts
01-Oct-18 12:37 33.681810 -117.866589 57 60ft 0kts
01-Oct-18 12:38 33.681810 -117.866589 57 60ft 0kts
01-Oct-18 12:39 33.681810 -117.866589 57 60ft 0kts
01-Oct-18 12:40 33.681810 -117.866589 57 60ft 0kts
01-Oct-18 12:41 33.681810 -117.866589 57 60ft 0kts
01-Oct-18 12:42 33.681899 -117.866164 110 60ft 0kts
01-Oct-18 12:43 33.681899 -117.866164 110 60ft 0kts
01-Oct-18 12:44 33.681304 -117.866346 146 60ft 12kts
01-Oct-18 12:45 33.671510 -117.871185 198 223ft 85kts
01-Oct-18 12:46 33.648028 -117.886051 219 816ft 108kts
01-Oct-18 12:47 33.629466 -117.912878 232 1676ft 101kts
01-Oct-18 12:48 33.610308 -117.942321 233 1955ft 124kts
01-Oct-18 12:49 33.589768 -117.973840 233 1997ft 110kts
01-Oct-18 12:50 33.573202 -117.998781 232 2483ft 86kts
01-Oct-18 12:51 33.557858 -118.022922 247 2987ft 103kts
01-Oct-18 12:52 33.573607 -118.050831 313 3475ft 110kts
01-Oct-18 12:53 33.596655 -118.075966 316 3936ft 116kts
01-Oct-18 12:54 33.623798 -118.102429 317 3975ft 128kts
01-Oct-18 12:55 33.650104 -118.126938 318 3971ft 115kts
01-Oct-18 12:56 33.674113 -118.151660 311 3971ft 112kts
01-Oct-18 12:57 33.697456 -118.176450 316 3971ft 112kts
01-Oct-18 12:58 33.721490 -118.200212 316 3970ft 111kts
01-Oct-18 12:59 33.744319 -118.224825 310 3969ft 109kts
01-Oct-18 13:00 33.766847 -118.249509 318 3967ft 110kts
01-Oct-18 13:01 33.791572 -118.270669 324 3963ft 110kts
01-Oct-18 13:02 33.818195 -118.288698 330 3959ft 110kts
01-Oct-18 13:03 33.846529 -118.302652 334 3956ft 110kts
01-Oct-18 13:04 33.873167 -118.320116 320 3953ft 109kts
01-Oct-18 13:05 33.897450 -118.341715 318 3949ft 109kts
01-Oct-18 13:06 33.920837 -118.364852 315 3946ft 109kts
01-Oct-18 13:07 33.943497 -118.389625 314 3945ft 111kts
01-Oct-18 13:08 33.966362 -118.414844 313 3945ft 113kts
01-Oct-18 13:09 33.989620 -118.440592 313 3946ft 114kts
01-Oct-18 13:10 34.012934 -118.466524 313 3949ft 115kts
01-Oct-18 13:11 34.036358 -118.492650 313 3952ft 115kts
01-Oct-18 13:12 34.059939 -118.518939 313 3955ft 115kts
01-Oct-18 13:13 34.083467 -118.545068 314 3957ft 114kts
01-Oct-18 13:14 34.105782 -118.569842 314 3955ft 110kts
01-Oct-18 13:15 34.127783 -118.594710 314 3948ft 108kts
01-Oct-18 13:16 34.149199 -118.619433 314 3942ft 107kts
01-Oct-18 13:17 34.170423 -118.644375 314 3937ft 106kts
01-Oct-18 13:18 34.193905 -118.651640 49 3926ft 113kts
01-Oct-18 13:19 34.199714 -118.614751 86 3925ft 114kts
01-Oct-18 13:20 34.201018 -118.576877 88 3928ft 113kts
01-Oct-18 13:21 34.198030 -118.537301 93 3601ft 126kts
01-Oct-18 13:22 34.199985 -118.495182 84 2825ft 119kts
01-Oct-18 13:23 34.198534 -118.459241 94 2232ft 99kts
01-Oct-18 13:24 34.198482 -118.427009 93 1718ft 96kts
01-Oct-18 13:25 34.198636 -118.398855 92 1278ft 74kts
01-Oct-18 13:26 34.198020 -118.373453 90 862ft 72kts
01-Oct-18 13:27 34.197888 -118.360702 76 734ft 14kts
01-Oct-18 13:28 34.198721 -118.360446 337 734ft 17kts

Navigation Log

Ident Type
Flight plan parsing failed, navigation log unavailable